sensor_id;sensor_type;location;lat;lon;timestamp;pressure;altitude;pressure_sealevel;temperature;humidity
73692;BME280;61996;49.910;35.562;2024-01-30T00:00:47;101556.81;;;19.45;37.96
73692;BME280;61996;49.910;35.562;2024-01-30T00:03:51;101561.56;;;19.40;38.07
73692;BME280;61996;49.910;35.562;2024-01-30T00:06:53;101553.56;;;19.40;37.93
73692;BME280;61996;49.910;35.562;2024-01-30T00:09:58;101561.19;;;19.32;37.94
73692;BME280;61996;49.910;35.562;2024-01-30T00:13:01;101558.03;;;19.25;38.11
73692;BME280;61996;49.910;35.562;2024-01-30T00:16:04;101550.34;;;19.21;38.23
73692;BME280;61996;49.910;35.562;2024-01-30T00:19:08;101548.91;;;19.15;38.15
73692;BME280;61996;49.910;35.562;2024-01-30T00:22:11;101542.13;;;19.09;37.87
73692;BME280;61996;49.910;35.562;2024-01-30T00:25:15;101537.94;;;19.05;38.35
73692;BME280;61996;49.910;35.562;2024-01-30T00:28:18;101532.03;;;19.00;38.29
73692;BME280;61996;49.910;35.562;2024-01-30T00:31:21;101530.50;;;18.96;38.20
73692;BME280;61996;49.910;35.562;2024-01-30T00:34:25;101529.66;;;18.96;38.05
73692;BME280;61996;49.910;35.562;2024-01-30T00:37:28;101519.47;;;18.88;38.40
73692;BME280;61996;49.910;35.562;2024-01-30T00:40:32;101515.34;;;18.82;38.45
73692;BME280;61996;49.910;35.562;2024-01-30T00:43:35;101514.81;;;18.92;38.13
73692;BME280;61996;49.910;35.562;2024-01-30T00:46:38;101520.41;;;18.87;38.38
73692;BME280;61996;49.910;35.562;2024-01-30T00:49:41;101500.56;;;18.77;38.54
73692;BME280;61996;49.910;35.562;2024-01-30T00:52:44;101509.38;;;18.79;39.63
73692;BME280;61996;49.910;35.562;2024-01-30T00:55:49;101505.00;;;18.78;41.82
73692;BME280;61996;49.910;35.562;2024-01-30T00:58:52;101509.38;;;18.93;44.02
73692;BME280;61996;49.910;35.562;2024-01-30T01:01:54;101501.28;;;18.80;42.12
73692;BME280;61996;49.910;35.562;2024-01-30T01:04:57;101502.75;;;18.70;41.81
73692;BME280;61996;49.910;35.562;2024-01-30T01:08:00;101503.66;;;18.71;41.73
73692;BME280;61996;49.910;35.562;2024-01-30T01:11:05;101510.00;;;18.68;41.76
73692;BME280;61996;49.910;35.562;2024-01-30T01:14:08;101503.91;;;18.66;41.99
73692;BME280;61996;49.910;35.562;2024-01-30T01:17:10;101499.25;;;18.70;41.90
73692;BME280;61996;49.910;35.562;2024-01-30T01:20:14;101500.72;;;18.59;41.69
73692;BME280;61996;49.910;35.562;2024-01-30T01:23:17;101506.50;;;18.52;41.62
73692;BME280;61996;49.910;35.562;2024-01-30T01:26:22;101503.84;;;18.52;41.70
73692;BME280;61996;49.910;35.562;2024-01-30T01:29:25;101497.94;;;18.47;41.37
73692;BME280;61996;49.910;35.562;2024-01-30T01:32:30;101504.31;;;18.44;41.50
73692;BME280;61996;49.910;35.562;2024-01-30T01:35:33;101499.75;;;18.46;41.80
73692;BME280;61996;49.910;35.562;2024-01-30T01:38:36;101491.75;;;18.46;41.26
73692;BME280;61996;49.910;35.562;2024-01-30T01:41:40;101488.38;;;18.43;41.64
73692;BME280;61996;49.910;35.562;2024-01-30T01:44:43;101490.28;;;18.41;41.71
73692;BME280;61996;49.910;35.562;2024-01-30T01:47:47;101478.78;;;18.40;41.73
73692;BME280;61996;49.910;35.562;2024-01-30T01:50:51;101482.00;;;18.31;41.47
73692;BME280;61996;49.910;35.562;2024-01-30T01:53:54;101483.72;;;18.32;41.45
73692;BME280;61996;49.910;35.562;2024-01-30T01:56:59;101483.81;;;18.30;41.53
73692;BME280;61996;49.910;35.562;2024-01-30T02:00:03;101477.69;;;18.28;41.89
73692;BME280;61996;49.910;35.562;2024-01-30T02:03:06;101479.59;;;18.26;41.58
73692;BME280;61996;49.910;35.562;2024-01-30T02:06:10;101474.53;;;18.22;41.48
73692;BME280;61996;49.910;35.562;2024-01-30T02:09:13;101474.53;;;18.22;41.47
73692;BME280;61996;49.910;35.562;2024-01-30T02:12:18;101474.94;;;18.16;41.51
73692;BME280;61996;49.910;35.562;2024-01-30T02:15:20;101466.75;;;18.19;41.74
73692;BME280;61996;49.910;35.562;2024-01-30T02:18:23;101468.66;;;18.17;41.57
73692;BME280;61996;49.910;35.562;2024-01-30T02:21:28;101465.28;;;18.13;41.33
73692;BME280;61996;49.910;35.562;2024-01-30T02:24:31;101459.00;;;18.14;41.69
73692;BME280;61996;49.910;35.562;2024-01-30T02:27:34;101468.91;;;18.12;41.86
73692;BME280;61996;49.910;35.562;2024-01-30T02:30:37;101453.19;;;18.07;41.31
73692;BME280;61996;49.910;35.562;2024-01-30T02:33:40;101457.84;;;18.04;41.45
73692;BME280;61996;49.910;35.562;2024-01-30T02:36:44;101464.97;;;18.03;41.65
73692;BME280;61996;49.910;35.562;2024-01-30T02:39:47;101465.16;;;18.00;41.30
73692;BME280;61996;49.910;35.562;2024-01-30T02:42:50;101458.91;;;18.01;41.34
73692;BME280;61996;49.910;35.562;2024-01-30T02:45:53;101459.06;;;17.98;41.43
73692;BME280;61996;49.910;35.562;2024-01-30T02:48:56;101444.69;;;18.01;41.28
73692;BME280;61996;49.910;35.562;2024-01-30T02:52:00;101444.03;;;17.97;41.37
73692;BME280;61996;49.910;35.562;2024-01-30T02:55:03;101436.91;;;17.98;41.27
73692;BME280;61996;49.910;35.562;2024-01-30T02:58:06;101429.78;;;17.98;41.31
73692;BME280;61996;49.910;35.562;2024-01-30T03:01:09;101433.59;;;17.94;41.22
73692;BME280;61996;49.910;35.562;2024-01-30T03:04:12;101431.00;;;17.93;41.34
73692;BME280;61996;49.910;35.562;2024-01-30T03:07:18;101424.91;;;17.91;41.44
73692;BME280;61996;49.910;35.562;2024-01-30T03:10:21;101431.28;;;17.88;41.05
73692;BME280;61996;49.910;35.562;2024-01-30T03:13:24;101436.00;;;17.83;41.29
73692;BME280;61996;49.910;35.562;2024-01-30T03:16:27;101434.94;;;17.86;41.12
73692;BME280;61996;49.910;35.562;2024-01-30T03:19:30;101427.06;;;17.84;41.30
73692;BME280;61996;49.910;35.562;2024-01-30T03:22:34;101433.25;;;17.85;41.56
73692;BME280;61996;49.910;35.562;2024-01-30T03:25:37;101428.97;;;17.82;41.46
73692;BME280;61996;49.910;35.562;2024-01-30T03:28:40;101427.41;;;17.78;41.43
73692;BME280;61996;49.910;35.562;2024-01-30T03:31:43;101422.94;;;17.78;41.49
73692;BME280;61996;49.910;35.562;2024-01-30T03:34:46;101426.91;;;17.87;40.99
73692;BME280;61996;49.910;35.562;2024-01-30T03:37:51;101425.09;;;17.88;40.64
73692;BME280;61996;49.910;35.562;2024-01-30T03:40:53;101423.19;;;17.90;40.79
73692;BME280;61996;49.910;35.562;2024-01-30T03:43:56;101417.41;;;17.97;40.42
73692;BME280;61996;49.910;35.562;2024-01-30T03:46:59;101417.47;;;18.12;40.75
73692;BME280;61996;49.910;35.562;2024-01-30T03:50:02;101414.34;;;18.19;40.36
73692;BME280;61996;49.910;35.562;2024-01-30T03:53:08;101405.72;;;18.30;40.51
73692;BME280;61996;49.910;35.562;2024-01-30T03:56:10;101410.59;;;18.38;40.23
73692;BME280;61996;49.910;35.562;2024-01-30T03:59:14;101412.19;;;18.40;40.07
73692;BME280;61996;49.910;35.562;2024-01-30T04:02:17;101402.88;;;18.47;39.88
73692;BME280;61996;49.910;35.562;2024-01-30T04:05:21;101405.91;;;18.55;39.80
73692;BME280;61996;49.910;35.562;2024-01-30T04:08:25;101400.31;;;18.60;40.05
73692;BME280;61996;49.910;35.562;2024-01-30T04:11:28;101404.41;;;18.66;40.03
73692;BME280;61996;49.910;35.562;2024-01-30T04:14:31;101399.19;;;18.64;39.56
73692;BME280;61996;49.910;35.562;2024-01-30T04:17:34;101404.09;;;18.72;39.77
73692;BME280;61996;49.910;35.562;2024-01-30T04:20:37;101401.97;;;18.77;39.74
73692;BME280;61996;49.910;35.562;2024-01-30T04:23:41;101412.06;;;18.72;39.50
73692;BME280;61996;49.910;35.562;2024-01-30T04:26:47;101409.41;;;18.72;39.64
73692;BME280;61996;49.910;35.562;2024-01-30T04:29:50;101412.16;;;18.70;39.82
73692;BME280;61996;49.910;35.562;2024-01-30T04:32:52;101402.53;;;18.68;39.79
73692;BME280;61996;49.910;35.562;2024-01-30T04:35:55;101400.97;;;18.63;39.57
73692;BME280;61996;49.910;35.562;2024-01-30T04:39:00;101395.50;;;18.67;39.51
73692;BME280;61996;49.910;35.562;2024-01-30T04:42:03;101398.50;;;18.60;39.84
73692;BME280;61996;49.910;35.562;2024-01-30T04:45:09;101404.13;;;18.56;39.76
73692;BME280;61996;49.910;35.562;2024-01-30T04:48:13;101393.94;;;18.48;40.00
73692;BME280;61996;49.910;35.562;2024-01-30T04:51:17;101388.81;;;18.45;40.19
73692;BME280;61996;49.910;35.562;2024-01-30T04:54:21;101384.50;;;18.43;40.24
73692;BME280;61996;49.910;35.562;2024-01-30T04:57:24;101385.91;;;18.34;39.93
73692;BME280;61996;49.910;35.562;2024-01-30T05:00:28;101394.28;;;18.28;40.42
73692;BME280;61996;49.910;35.562;2024-01-30T05:03:32;101388.94;;;18.14;40.11
73692;BME280;61996;49.910;35.562;2024-01-30T05:06:35;101386.47;;;18.11;40.19
73692;BME280;61996;49.910;35.562;2024-01-30T05:09:40;101383.69;;;18.12;40.12
73692;BME280;61996;49.910;35.562;2024-01-30T05:12:43;101386.56;;;18.09;40.20
73692;BME280;61996;49.910;35.562;2024-01-30T05:15:46;101387.78;;;18.03;40.19
73692;BME280;61996;49.910;35.562;2024-01-30T05:18:49;101385.13;;;18.03;40.19
73692;BME280;61996;49.910;35.562;2024-01-30T05:21:52;101384.63;;;17.97;40.21
73692;BME280;61996;49.910;35.562;2024-01-30T05:24:56;101382.22;;;17.92;40.36
73692;BME280;61996;49.910;35.562;2024-01-30T05:27:59;101373.47;;;17.90;40.12
73692;BME280;61996;49.910;35.562;2024-01-30T05:31:02;101369.22;;;17.88;40.32
73692;BME280;61996;49.910;35.562;2024-01-30T05:34:05;101373.94;;;17.83;40.34
73692;BME280;61996;49.910;35.562;2024-01-30T05:37:08;101387.50;;;17.78;40.66
73692;BME280;61996;49.910;35.562;2024-01-30T05:40:17;101384.25;;;17.73;40.46
73692;BME280;61996;49.910;35.562;2024-01-30T05:43:20;101380.03;;;17.69;40.55
73692;BME280;61996;49.910;35.562;2024-01-30T05:46:23;101381.84;;;17.68;40.50
73692;BME280;61996;49.910;35.562;2024-01-30T05:49:26;101386.66;;;17.62;40.59
73692;BME280;61996;49.910;35.562;2024-01-30T05:52:29;101378.75;;;17.60;40.63
73692;BME280;61996;49.910;35.562;2024-01-30T05:55:34;101387.59;;;17.61;40.67
73692;BME280;61996;49.910;35.562;2024-01-30T05:58:37;101396.69;;;17.57;40.69
73692;BME280;61996;49.910;35.562;2024-01-30T06:01:45;101392.56;;;17.51;40.69
73692;BME280;61996;49.910;35.562;2024-01-30T06:04:48;101393.44;;;17.51;40.71
73692;BME280;61996;49.910;35.562;2024-01-30T06:07:51;101400.66;;;17.49;40.75
73692;BME280;61996;49.910;35.562;2024-01-30T06:10:56;101409.75;;;17.45;40.66
73692;BME280;61996;49.910;35.562;2024-01-30T06:13:59;101403.75;;;17.42;40.79
73692;BME280;61996;49.910;35.562;2024-01-30T06:17:02;101402.19;;;17.38;40.73
73692;BME280;61996;49.910;35.562;2024-01-30T06:20:05;101405.72;;;17.38;40.66
73692;BME280;61996;49.910;35.562;2024-01-30T06:23:08;101404.19;;;17.34;40.86
73692;BME280;61996;49.910;35.562;2024-01-30T06:26:13;101407.78;;;17.33;40.90
73692;BME280;61996;49.910;35.562;2024-01-30T06:29:16;101389.41;;;17.29;40.95
73692;BME280;61996;49.910;35.562;2024-01-30T06:32:20;101394.75;;;17.29;41.03
73692;BME280;61996;49.910;35.562;2024-01-30T06:35:23;101389.50;;;17.27;40.86
73692;BME280;61996;49.910;35.562;2024-01-30T06:38:26;101381.69;;;17.24;40.85
73692;BME280;61996;49.910;35.562;2024-01-30T06:41:30;101386.09;;;17.25;40.76
73692;BME280;61996;49.910;35.562;2024-01-30T06:44:33;101382.81;;;17.20;41.05
73692;BME280;61996;49.910;35.562;2024-01-30T06:47:36;101390.03;;;17.18;41.00
73692;BME280;61996;49.910;35.562;2024-01-30T06:50:39;101383.84;;;17.17;40.93
73692;BME280;61996;49.910;35.562;2024-01-30T06:53:43;101387.44;;;17.16;40.68
73692;BME280;61996;49.910;35.562;2024-01-30T06:56:48;101385.72;;;17.15;41.02
73692;BME280;61996;49.910;35.562;2024-01-30T06:59:51;101387.72;;;17.12;41.08
73692;BME280;61996;49.910;35.562;2024-01-30T07:02:54;101380.50;;;17.14;40.94
73692;BME280;61996;49.910;35.562;2024-01-30T07:05:58;101373.72;;;17.08;41.19
73692;BME280;61996;49.910;35.562;2024-01-30T07:09:01;101386.91;;;17.10;40.89
73692;BME280;61996;49.910;35.562;2024-01-30T07:12:06;101372.63;;;17.12;40.96
73692;BME280;61996;49.910;35.562;2024-01-30T07:15:09;101363.69;;;17.13;41.04
73692;BME280;61996;49.910;35.562;2024-01-30T07:18:12;101362.09;;;17.11;40.83
73692;BME280;61996;49.910;35.562;2024-01-30T07:21:16;101353.41;;;17.07;40.97
73692;BME280;61996;49.910;35.562;2024-01-30T07:24:19;101362.25;;;17.08;40.84
73692;BME280;61996;49.910;35.562;2024-01-30T07:27:23;101357.97;;;17.05;40.92
73692;BME280;61996;49.910;35.562;2024-01-30T07:30:26;101353.75;;;17.01;40.94
73692;BME280;61996;49.910;35.562;2024-01-30T07:33:35;101345.78;;;17.01;41.00
73692;BME280;61996;49.910;35.562;2024-01-30T07:36:38;101350.03;;;17.04;41.07
73692;BME280;61996;49.910;35.562;2024-01-30T07:39:41;101351.78;;;17.05;41.00
73692;BME280;61996;49.910;35.562;2024-01-30T07:42:48;101351.09;;;17.01;40.82
73692;BME280;61996;49.910;35.562;2024-01-30T07:45:51;101353.66;;;17.03;41.03
73692;BME280;61996;49.910;35.562;2024-01-30T07:48:54;101357.34;;;17.00;40.80
73692;BME280;61996;49.910;35.562;2024-01-30T07:51:57;101361.56;;;17.04;40.95
73692;BME280;61996;49.910;35.562;2024-01-30T07:55:00;101374.06;;;17.02;40.83
73692;BME280;61996;49.910;35.562;2024-01-30T07:58:07;101360.53;;;17.07;40.78
73692;BME280;61996;49.910;35.562;2024-01-30T08:01:10;101363.72;;;16.97;40.98
73692;BME280;61996;49.910;35.562;2024-01-30T08:04:13;101360.88;;;17.01;40.87
73692;BME280;61996;49.910;35.562;2024-01-30T08:07:16;101360.88;;;17.01;40.68
73692;BME280;61996;49.910;35.562;2024-01-30T08:10:20;101365.13;;;17.03;40.84
73692;BME280;61996;49.910;35.562;2024-01-30T08:13:24;101358.97;;;17.03;40.78
73692;BME280;61996;49.910;35.562;2024-01-30T08:16:27;101367.22;;;16.98;40.87
73692;BME280;61996;49.910;35.562;2024-01-30T08:19:30;101348.53;;;16.99;40.70
73692;BME280;61996;49.910;35.562;2024-01-30T08:22:33;101339.78;;;16.97;40.73
73692;BME280;61996;49.910;35.562;2024-01-30T08:25:37;101342.69;;;16.93;40.84
73692;BME280;61996;49.910;35.562;2024-01-30T08:28:41;101339.00;;;16.95;40.80
73692;BME280;61996;49.910;35.562;2024-01-30T08:31:44;101341.50;;;16.98;40.66
73692;BME280;61996;49.910;35.562;2024-01-30T08:34:47;101334.28;;;17.01;40.61
73692;BME280;61996;49.910;35.562;2024-01-30T08:37:53;101328.22;;;16.98;40.70
73692;BME280;61996;49.910;35.562;2024-01-30T08:40:56;101316.22;;;16.91;40.74
73692;BME280;61996;49.910;35.562;2024-01-30T08:44:01;101318.59;;;16.96;40.70
73692;BME280;61996;49.910;35.562;2024-01-30T08:47:04;101320.38;;;16.95;40.84
73692;BME280;61996;49.910;35.562;2024-01-30T08:50:07;101316.22;;;16.91;40.72
73692;BME280;61996;49.910;35.562;2024-01-30T08:53:11;101313.56;;;16.91;40.52
73692;BME280;61996;49.910;35.562;2024-01-30T08:56:14;101315.25;;;16.92;40.79
73692;BME280;61996;49.910;35.562;2024-01-30T08:59:19;101311.75;;;16.92;40.74
73692;BME280;61996;49.910;35.562;2024-01-30T09:02:22;101303.88;;;16.90;40.60
73692;BME280;61996;49.910;35.562;2024-01-30T09:05:25;101302.91;;;16.91;40.62
73692;BME280;61996;49.910;35.562;2024-01-30T09:08:28;101293.22;;;16.90;40.53
73692;BME280;61996;49.910;35.562;2024-01-30T09:11:31;101285.25;;;16.90;40.71
73692;BME280;61996;49.910;35.562;2024-01-30T09:14:36;101287.53;;;16.96;40.44
73692;BME280;61996;49.910;35.562;2024-01-30T09:17:39;101282.84;;;17.02;40.38
73692;BME280;61996;49.910;35.562;2024-01-30T09:20:43;101277.88;;;17.11;40.12
73692;BME280;61996;49.910;35.562;2024-01-30T09:23:46;101266.78;;;17.19;40.16
73692;BME280;61996;49.910;35.562;2024-01-30T09:26:49;101257.06;;;17.34;39.78
73692;BME280;61996;49.910;35.562;2024-01-30T09:29:54;101248.28;;;17.47;39.48
73692;BME280;61996;49.910;35.562;2024-01-30T09:32:57;101250.28;;;17.58;39.39
73692;BME280;61996;49.910;35.562;2024-01-30T09:36:00;101249.06;;;17.64;39.21
73692;BME280;61996;49.910;35.562;2024-01-30T09:39:03;101244.22;;;17.70;39.27
73692;BME280;61996;49.910;35.562;2024-01-30T09:42:09;101225.06;;;17.79;39.21
73692;BME280;61996;49.910;35.562;2024-01-30T09:45:16;101220.44;;;17.83;38.90
73692;BME280;61996;49.910;35.562;2024-01-30T09:48:20;101227.28;;;17.87;38.95
73692;BME280;61996;49.910;35.562;2024-01-30T09:51:24;101229.38;;;17.96;38.84
73692;BME280;61996;49.910;35.562;2024-01-30T09:54:28;101229.19;;;17.99;38.90
73692;BME280;61996;49.910;35.562;2024-01-30T09:57:36;101228.78;;;18.05;38.86
73692;BME280;61996;49.910;35.562;2024-01-30T10:00:40;101226.72;;;18.11;38.79
73692;BME280;61996;49.910;35.562;2024-01-30T10:03:44;101225.66;;;18.13;38.81
73692;BME280;61996;49.910;35.562;2024-01-30T10:06:47;101223.78;;;18.15;38.76
73692;BME280;61996;49.910;35.562;2024-01-30T10:09:50;101225.38;;;18.18;38.74
73692;BME280;61996;49.910;35.562;2024-01-30T10:12:54;101228.63;;;18.23;38.61
73692;BME280;61996;49.910;35.562;2024-01-30T10:15:59;101223.38;;;18.21;38.56
73692;BME280;61996;49.910;35.562;2024-01-30T10:19:04;101212.31;;;18.27;38.60
73692;BME280;61996;49.910;35.562;2024-01-30T10:22:07;101218.97;;;18.34;38.57
73692;BME280;61996;49.910;35.562;2024-01-30T10:25:12;101202.94;;;18.63;38.33
73692;BME280;61996;49.910;35.562;2024-01-30T10:28:15;101205.00;;;18.45;38.84
73692;BME280;61996;49.910;35.562;2024-01-30T10:31:19;101205.00;;;18.45;39.12
73692;BME280;61996;49.910;35.562;2024-01-30T10:34:22;101204.88;;;18.47;39.00
73692;BME280;61996;49.910;35.562;2024-01-30T10:37:25;101203.75;;;18.51;38.70
73692;BME280;61996;49.910;35.562;2024-01-30T10:40:31;101197.34;;;18.53;38.86
73692;BME280;61996;49.910;35.562;2024-01-30T10:43:36;101195.66;;;18.52;38.54
73692;BME280;61996;49.910;35.562;2024-01-30T10:46:46;101197.06;;;18.58;38.59
73692;BME280;61996;49.910;35.562;2024-01-30T10:49:50;101193.06;;;18.65;38.30
73692;BME280;61996;49.910;35.562;2024-01-30T10:52:54;101185.72;;;18.69;38.27
73692;BME280;61996;49.910;35.562;2024-01-30T10:55:57;101182.97;;;18.70;38.18
73692;BME280;61996;49.910;35.562;2024-01-30T10:59:01;101180.22;;;18.72;38.24
73692;BME280;61996;49.910;35.562;2024-01-30T11:02:06;101184.59;;;18.73;38.27
73692;BME280;61996;49.910;35.562;2024-01-30T11:05:10;101186.00;;;18.78;38.26
73692;BME280;61996;49.910;35.562;2024-01-30T11:08:13;101179.81;;;18.78;38.23
73692;BME280;61996;49.910;35.562;2024-01-30T11:11:16;101174.81;;;18.86;37.86
73692;BME280;61996;49.910;35.562;2024-01-30T11:14:23;101177.53;;;18.99;37.99
73692;BME280;61996;49.910;35.562;2024-01-30T11:17:29;101173.50;;;19.06;37.61
73692;BME280;61996;49.910;35.562;2024-01-30T11:20:41;101175.84;;;19.10;37.78
73692;BME280;61996;49.910;35.562;2024-01-30T11:23:49;101174.06;;;18.84;38.61
73692;BME280;61996;49.910;35.562;2024-01-30T11:26:55;101162.88;;;18.79;38.23
73692;BME280;61996;49.910;35.562;2024-01-30T11:30:00;101168.38;;;18.76;38.59
73692;BME280;61996;49.910;35.562;2024-01-30T11:33:06;101170.53;;;18.71;38.48
73692;BME280;61996;49.910;35.562;2024-01-30T11:36:10;101161.16;;;18.63;38.55
73692;BME280;61996;49.910;35.562;2024-01-30T11:39:16;101161.16;;;18.63;38.49
73692;BME280;61996;49.910;35.562;2024-01-30T11:42:19;101164.53;;;18.53;38.66
73692;BME280;61996;49.910;35.562;2024-01-30T11:45:24;101157.22;;;18.42;38.85
73692;BME280;61996;49.910;35.562;2024-01-30T11:48:28;101155.16;;;18.33;38.86
73692;BME280;61996;49.910;35.562;2024-01-30T11:51:31;101142.69;;;18.33;38.97
73692;BME280;61996;49.910;35.562;2024-01-30T11:54:34;101133.91;;;18.19;39.06
73692;BME280;61996;49.910;35.562;2024-01-30T11:57:37;101132.09;;;18.19;39.00
73692;BME280;61996;49.910;35.562;2024-01-30T12:00:40;101137.03;;;18.11;39.23
73692;BME280;61996;49.910;35.562;2024-01-30T12:03:50;101132.69;;;18.10;39.36
73692;BME280;61996;49.910;35.562;2024-01-30T12:06:53;101129.16;;;18.10;39.07
73692;BME280;61996;49.910;35.562;2024-01-30T12:09:55;101133.34;;;17.99;39.37
73692;BME280;61996;49.910;35.562;2024-01-30T12:12:58;101129.94;;;17.97;39.30
73692;BME280;61996;49.910;35.562;2024-01-30T12:16:02;101128.22;;;17.96;39.33
73692;BME280;61996;49.910;35.562;2024-01-30T12:19:06;101109.78;;;17.93;39.30
73692;BME280;61996;49.910;35.562;2024-01-30T12:22:10;101110.72;;;17.92;39.25
73692;BME280;61996;49.910;35.562;2024-01-30T12:25:13;101111.22;;;17.85;39.45
73692;BME280;61996;49.910;35.562;2024-01-30T12:28:17;101105.78;;;17.86;39.33
73692;BME280;61996;49.910;35.562;2024-01-30T12:31:24;101106.94;;;17.82;39.28
73692;BME280;61996;49.910;35.562;2024-01-30T12:34:29;101112.25;;;17.68;39.58
73692;BME280;61996;49.910;35.562;2024-01-30T12:37:39;101100.47;;;17.72;39.40
73692;BME280;61996;49.910;35.562;2024-01-30T12:40:42;101107.63;;;17.71;39.33
73692;BME280;61996;49.910;35.562;2024-01-30T12:43:46;101099.69;;;17.70;39.31
73692;BME280;61996;49.910;35.562;2024-01-30T12:46:53;101098.16;;;17.66;39.43
73692;BME280;61996;49.910;35.562;2024-01-30T12:49:58;101094.75;;;17.64;39.47
73692;BME280;61996;49.910;35.562;2024-01-30T12:53:01;101097.53;;;17.62;39.45
73692;BME280;61996;49.910;35.562;2024-01-30T12:56:05;101092.09;;;17.64;39.35
73692;BME280;61996;49.910;35.562;2024-01-30T12:59:07;101090.50;;;17.61;39.42
73692;BME280;61996;49.910;35.562;2024-01-30T13:02:11;101098.59;;;17.60;39.54
73692;BME280;61996;49.910;35.562;2024-01-30T13:05:16;101090.00;;;17.69;39.24
73692;BME280;61996;49.910;35.562;2024-01-30T13:08:19;101085.38;;;17.72;39.24
73692;BME280;61996;49.910;35.562;2024-01-30T13:11:22;101084.81;;;17.82;39.00
73692;BME280;61996;49.910;35.562;2024-01-30T13:14:27;101072.63;;;17.92;38.89
73692;BME280;61996;49.910;35.562;2024-01-30T13:17:29;101082.19;;;18.08;38.51
73692;BME280;61996;49.910;35.562;2024-01-30T13:20:34;101073.78;;;18.15;38.46
73692;BME280;61996;49.910;35.562;2024-01-30T13:23:37;101071.50;;;18.23;38.37
73692;BME280;61996;49.910;35.562;2024-01-30T13:26:40;101074.63;;;18.29;38.33
73692;BME280;61996;49.910;35.562;2024-01-30T13:29:43;101082.84;;;18.39;38.25
73692;BME280;61996;49.910;35.562;2024-01-30T13:32:46;101084.00;;;18.35;38.24
73692;BME280;61996;49.910;35.562;2024-01-30T13:35:50;101090.09;;;18.37;38.27
73692;BME280;61996;49.910;35.562;2024-01-30T13:38:53;101082.56;;;18.44;38.30
73692;BME280;61996;49.910;35.562;2024-01-30T13:41:56;101072.66;;;18.46;38.25
73692;BME280;61996;49.910;35.562;2024-01-30T13:44:59;101075.22;;;18.47;38.17
73692;BME280;61996;49.910;35.562;2024-01-30T13:48:02;101064.38;;;18.50;38.12
73692;BME280;61996;49.910;35.562;2024-01-30T13:51:07;101061.69;;;18.50;38.19
73692;BME280;61996;49.910;35.562;2024-01-30T13:54:10;101057.56;;;18.59;38.11
73692;BME280;61996;49.910;35.562;2024-01-30T13:57:14;101056.81;;;18.57;38.04
73692;BME280;61996;49.910;35.562;2024-01-30T14:00:18;101066.53;;;18.58;38.10
73692;BME280;61996;49.910;35.562;2024-01-30T14:03:23;101064.59;;;18.60;38.12
73692;BME280;61996;49.910;35.562;2024-01-30T14:06:28;101066.09;;;18.64;38.04
73692;BME280;61996;49.910;35.562;2024-01-30T14:09:31;101063.44;;;18.64;37.90
73692;BME280;61996;49.910;35.562;2024-01-30T14:12:34;101066.00;;;18.66;38.02
73692;BME280;61996;49.910;35.562;2024-01-30T14:15:37;101071.34;;;18.66;37.96
73692;BME280;61996;49.910;35.562;2024-01-30T14:18:40;101056.97;;;18.68;37.86
73692;BME280;61996;49.910;35.562;2024-01-30T14:21:44;101055.94;;;18.71;38.01
73692;BME280;61996;49.910;35.562;2024-01-30T14:24:47;101061.25;;;18.71;37.93
73692;BME280;61996;49.910;35.562;2024-01-30T14:27:50;101058.25;;;18.75;37.69
73692;BME280;61996;49.910;35.562;2024-01-30T14:30:54;101057.41;;;18.75;37.85
73692;BME280;61996;49.910;35.562;2024-01-30T14:33:56;101056.66;;;18.73;37.90
73692;BME280;61996;49.910;35.562;2024-01-30T14:37:02;101047.50;;;18.77;37.99
73692;BME280;61996;49.910;35.562;2024-01-30T14:40:05;101053.78;;;18.76;37.88
73692;BME280;61996;49.910;35.562;2024-01-30T14:43:09;101048.44;;;18.76;37.87
73692;BME280;61996;49.910;35.562;2024-01-30T14:46:15;101057.09;;;18.79;38.03
73692;BME280;61996;49.910;35.562;2024-01-30T14:49:21;101049.97;;;18.80;37.80
73692;BME280;61996;49.910;35.562;2024-01-30T14:52:25;101056.16;;;18.80;37.89
73692;BME280;61996;49.910;35.562;2024-01-30T14:55:28;101057.00;;;18.81;37.73
73692;BME280;61996;49.910;35.562;2024-01-30T14:58:31;101049.00;;;18.81;37.94
73692;BME280;61996;49.910;35.562;2024-01-30T15:01:34;101041.84;;;18.81;37.71
73692;BME280;61996;49.910;35.562;2024-01-30T15:04:37;101045.81;;;18.88;37.71
73692;BME280;61996;49.910;35.562;2024-01-30T15:07:42;101047.06;;;18.83;37.88
73692;BME280;61996;49.910;35.562;2024-01-30T15:10:45;101057.75;;;18.83;37.83
73692;BME280;61996;49.910;35.562;2024-01-30T15:13:48;101059.44;;;18.84;37.74
73692;BME280;61996;49.910;35.562;2024-01-30T15:16:51;101069.16;;;18.85;37.77
73692;BME280;61996;49.910;35.562;2024-01-30T15:19:54;101057.09;;;18.79;37.82
73692;BME280;61996;49.910;35.562;2024-01-30T15:26:18;101059.53;;;18.70;37.99
73692;BME280;61996;49.910;35.562;2024-01-30T15:29:21;101053.72;;;18.63;38.18
73692;BME280;61996;49.910;35.562;2024-01-30T15:32:25;101047.75;;;18.59;38.16
73692;BME280;61996;49.910;35.562;2024-01-30T15:35:27;101046.34;;;18.54;38.13
73692;BME280;61996;49.910;35.562;2024-01-30T15:38:30;101049.63;;;18.45;38.30
73692;BME280;61996;49.910;35.562;2024-01-30T15:41:35;101058.66;;;18.42;38.28
73692;BME280;61996;49.910;35.562;2024-01-30T15:44:40;101058.22;;;18.35;38.44
73692;BME280;61996;49.910;35.562;2024-01-30T15:47:43;101051.44;;;18.44;38.39
73692;BME280;61996;49.910;35.562;2024-01-30T15:55:26;101061.00;;;18.34;38.93